sensor_id;sensor_type;location;lat;lon;timestamp;P1;durP1;ratioP1;P2;durP2;ratioP2
38843;SDS011;24596;48.080;8.362;2023-02-01T00:00:16;6.03;;;3.22;;
38843;SDS011;24596;48.080;8.362;2023-02-01T00:02:42;6.60;;;3.20;;
38843;SDS011;24596;48.080;8.362;2023-02-01T00:05:07;6.97;;;3.30;;
38843;SDS011;24596;48.080;8.362;2023-02-01T00:07:33;7.38;;;3.10;;
38843;SDS011;24596;48.080;8.362;2023-02-01T00:09:59;7.25;;;3.25;;
38843;SDS011;24596;48.080;8.362;2023-02-01T00:12:24;8.48;;;3.55;;
38843;SDS011;24596;48.080;8.362;2023-02-01T00:14:49;7.20;;;3.13;;
38843;SDS011;24596;48.080;8.362;2023-02-01T00:17:14;7.40;;;3.58;;
38843;SDS011;24596;48.080;8.362;2023-02-01T00:19:40;6.97;;;3.20;;
38843;SDS011;24596;48.080;8.362;2023-02-01T00:22:05;7.85;;;3.38;;
38843;SDS011;24596;48.080;8.362;2023-02-01T00:24:30;5.75;;;2.90;;
38843;SDS011;24596;48.080;8.362;2023-02-01T00:26:55;6.13;;;2.80;;
38843;SDS011;24596;48.080;8.362;2023-02-01T00:29:21;5.80;;;2.97;;
38843;SDS011;24596;48.080;8.362;2023-02-01T00:31:46;6.63;;;2.90;;
38843;SDS011;24596;48.080;8.362;2023-02-01T00:34:12;5.82;;;2.78;;
38843;SDS011;24596;48.080;8.362;2023-02-01T00:36:37;9.13;;;4.00;;
38843;SDS011;24596;48.080;8.362;2023-02-01T00:39:03;7.00;;;2.95;;
38843;SDS011;24596;48.080;8.362;2023-02-01T00:41:28;6.55;;;3.65;;
38843;SDS011;24596;48.080;8.362;2023-02-01T00:43:53;10.77;;;4.30;;
38843;SDS011;24596;48.080;8.362;2023-02-01T00:46:19;9.13;;;4.70;;
38843;SDS011;24596;48.080;8.362;2023-02-01T00:48:44;12.50;;;4.75;;
38843;SDS011;24596;48.080;8.362;2023-02-01T00:51:11;9.38;;;3.97;;
38843;SDS011;24596;48.080;8.362;2023-02-01T00:53:36;8.80;;;4.20;;
38843;SDS011;24596;48.080;8.362;2023-02-01T00:56:02;8.65;;;3.92;;
38843;SDS011;24596;48.080;8.362;2023-02-01T00:58:28;7.50;;;3.22;;
38843;SDS011;24596;48.080;8.362;2023-02-01T01:01:00;10.45;;;4.30;;
38843;SDS011;24596;48.080;8.362;2023-02-01T01:03:25;11.05;;;3.90;;
38843;SDS011;24596;48.080;8.362;2023-02-01T01:05:50;8.82;;;4.25;;
38843;SDS011;24596;48.080;8.362;2023-02-01T01:08:16;7.88;;;3.63;;
38843;SDS011;24596;48.080;8.362;2023-02-01T01:10:41;8.73;;;3.60;;
38843;SDS011;24596;48.080;8.362;2023-02-01T01:13:07;7.50;;;3.45;;
38843;SDS011;24596;48.080;8.362;2023-02-01T01:15:36;8.55;;;4.15;;
38843;SDS011;24596;48.080;8.362;2023-02-01T01:18:01;7.50;;;3.85;;
38843;SDS011;24596;48.080;8.362;2023-02-01T01:20:26;8.90;;;3.63;;
38843;SDS011;24596;48.080;8.362;2023-02-01T01:22:51;8.50;;;3.67;;
38843;SDS011;24596;48.080;8.362;2023-02-01T01:25:16;8.77;;;3.80;;
38843;SDS011;24596;48.080;8.362;2023-02-01T01:27:42;8.43;;;3.83;;
38843;SDS011;24596;48.080;8.362;2023-02-01T01:30:07;7.03;;;3.38;;
38843;SDS011;24596;48.080;8.362;2023-02-01T01:32:32;8.85;;;4.10;;
38843;SDS011;24596;48.080;8.362;2023-02-01T01:34:57;5.80;;;2.90;;
38843;SDS011;24596;48.080;8.362;2023-02-01T01:37:23;7.15;;;3.38;;
38843;SDS011;24596;48.080;8.362;2023-02-01T01:39:48;11.20;;;4.30;;
38843;SDS011;24596;48.080;8.362;2023-02-01T01:42:13;8.88;;;4.18;;
38843;SDS011;24596;48.080;8.362;2023-02-01T01:47:22;8.48;;;4.35;;
38843;SDS011;24596;48.080;8.362;2023-02-01T01:49:48;8.55;;;3.35;;
38843;SDS011;24596;48.080;8.362;2023-02-01T01:52:14;8.73;;;4.30;;
38843;SDS011;24596;48.080;8.362;2023-02-01T01:54:47;9.52;;;4.30;;
38843;SDS011;24596;48.080;8.362;2023-02-01T01:57:17;8.57;;;4.35;;
38843;SDS011;24596;48.080;8.362;2023-02-01T01:59:46;7.97;;;4.13;;
38843;SDS011;24596;48.080;8.362;2023-02-01T02:02:12;7.82;;;3.90;;
38843;SDS011;24596;48.080;8.362;2023-02-01T02:04:37;12.90;;;3.75;;
38843;SDS011;24596;48.080;8.362;2023-02-01T02:07:14;8.40;;;3.92;;
38843;SDS011;24596;48.080;8.362;2023-02-01T02:09:40;8.77;;;3.90;;
38843;SDS011;24596;48.080;8.362;2023-02-01T02:12:08;9.73;;;4.35;;
38843;SDS011;24596;48.080;8.362;2023-02-01T02:14:33;6.57;;;3.42;;
38843;SDS011;24596;48.080;8.362;2023-02-01T02:25:00;10.43;;;3.75;;
38843;SDS011;24596;48.080;8.362;2023-02-01T02:37:48;8.53;;;4.13;;
38843;SDS011;24596;48.080;8.362;2023-02-01T02:40:27;6.72;;;3.22;;
38843;SDS011;24596;48.080;8.362;2023-02-01T02:45:44;6.50;;;3.40;;
38843;SDS011;24596;48.080;8.362;2023-02-01T02:48:36;8.40;;;3.57;;
38843;SDS011;24596;48.080;8.362;2023-02-01T02:51:06;6.28;;;2.78;;
38843;SDS011;24596;48.080;8.362;2023-02-01T02:56:35;6.63;;;3.10;;
38843;SDS011;24596;48.080;8.362;2023-02-01T02:59:19;6.13;;;2.58;;
38843;SDS011;24596;48.080;8.362;2023-02-01T03:02:04;7.00;;;3.22;;
38843;SDS011;24596;48.080;8.362;2023-02-01T03:04:51;7.38;;;3.08;;
38843;SDS011;24596;48.080;8.362;2023-02-01T03:10:03;6.65;;;2.72;;
38843;SDS011;24596;48.080;8.362;2023-02-01T03:12:30;7.68;;;3.10;;
38843;SDS011;24596;48.080;8.362;2023-02-01T03:15:17;7.68;;;2.97;;
38843;SDS011;24596;48.080;8.362;2023-02-01T03:17:43;7.78;;;3.47;;
38843;SDS011;24596;48.080;8.362;2023-02-01T03:20:10;7.85;;;3.65;;
38843;SDS011;24596;48.080;8.362;2023-02-01T03:22:38;7.63;;;2.80;;
38843;SDS011;24596;48.080;8.362;2023-02-01T03:25:07;7.38;;;2.97;;
38843;SDS011;24596;48.080;8.362;2023-02-01T03:27:34;6.47;;;3.20;;
38843;SDS011;24596;48.080;8.362;2023-02-01T03:32:30;9.02;;;2.95;;
38843;SDS011;24596;48.080;8.362;2023-02-01T03:35:15;6.72;;;3.05;;
38843;SDS011;24596;48.080;8.362;2023-02-01T03:37:41;6.00;;;3.03;;
38843;SDS011;24596;48.080;8.362;2023-02-01T03:40:07;7.05;;;2.97;;
38843;SDS011;24596;48.080;8.362;2023-02-01T03:42:52;5.95;;;2.60;;
38843;SDS011;24596;48.080;8.362;2023-02-01T03:45:23;6.70;;;2.20;;
38843;SDS011;24596;48.080;8.362;2023-02-01T03:47:52;5.55;;;2.20;;
38843;SDS011;24596;48.080;8.362;2023-02-01T03:50:21;6.45;;;2.67;;
38843;SDS011;24596;48.080;8.362;2023-02-01T03:52:50;5.78;;;2.30;;
38843;SDS011;24596;48.080;8.362;2023-02-01T03:55:18;5.28;;;2.50;;
38843;SDS011;24596;48.080;8.362;2023-02-01T03:58:07;5.72;;;2.65;;
38843;SDS011;24596;48.080;8.362;2023-02-01T04:00:30;5.20;;;2.20;;
38843;SDS011;24596;48.080;8.362;2023-02-01T04:02:55;4.13;;;1.92;;
38843;SDS011;24596;48.080;8.362;2023-02-01T04:05:21;7.97;;;2.70;;
38843;SDS011;24596;48.080;8.362;2023-02-01T04:07:46;4.72;;;2.00;;
38843;SDS011;24596;48.080;8.362;2023-02-01T04:10:12;3.85;;;1.70;;
38843;SDS011;24596;48.080;8.362;2023-02-01T04:12:38;3.85;;;1.90;;
38843;SDS011;24596;48.080;8.362;2023-02-01T04:15:03;5.55;;;1.90;;
38843;SDS011;24596;48.080;8.362;2023-02-01T04:17:29;2.67;;;1.17;;
38843;SDS011;24596;48.080;8.362;2023-02-01T04:19:54;2.38;;;1.20;;
38843;SDS011;24596;48.080;8.362;2023-02-01T04:22:19;3.78;;;1.40;;
38843;SDS011;24596;48.080;8.362;2023-02-01T04:24:44;2.45;;;1.08;;
38843;SDS011;24596;48.080;8.362;2023-02-01T04:27:10;2.25;;;1.05;;
38843;SDS011;24596;48.080;8.362;2023-02-01T04:29:35;4.72;;;1.25;;
38843;SDS011;24596;48.080;8.362;2023-02-01T04:32:00;2.50;;;1.10;;
38843;SDS011;24596;48.080;8.362;2023-02-01T04:34:25;3.38;;;1.20;;
38843;SDS011;24596;48.080;8.362;2023-02-01T04:36:51;2.85;;;1.20;;
38843;SDS011;24596;48.080;8.362;2023-02-01T04:39:16;1.55;;;1.02;;
38843;SDS011;24596;48.080;8.362;2023-02-01T04:41:41;3.05;;;1.27;;
38843;SDS011;24596;48.080;8.362;2023-02-01T04:44:08;2.10;;;1.00;;
38843;SDS011;24596;48.080;8.362;2023-02-01T04:46:34;1.67;;;0.85;;
38843;SDS011;24596;48.080;8.362;2023-02-01T04:49:00;2.53;;;1.10;;
38843;SDS011;24596;48.080;8.362;2023-02-01T04:51:25;4.13;;;1.45;;
38843;SDS011;24596;48.080;8.362;2023-02-01T04:53:50;4.50;;;1.30;;
38843;SDS011;24596;48.080;8.362;2023-02-01T04:56:15;2.25;;;1.15;;
38843;SDS011;24596;48.080;8.362;2023-02-01T04:58:40;4.28;;;1.38;;
38843;SDS011;24596;48.080;8.362;2023-02-01T05:01:06;4.70;;;1.20;;
38843;SDS011;24596;48.080;8.362;2023-02-01T05:03:32;3.17;;;1.25;;
38843;SDS011;24596;48.080;8.362;2023-02-01T05:05:57;3.88;;;1.38;;
38843;SDS011;24596;48.080;8.362;2023-02-01T05:08:23;2.75;;;1.30;;
38843;SDS011;24596;48.080;8.362;2023-02-01T05:10:50;2.67;;;1.20;;
38843;SDS011;24596;48.080;8.362;2023-02-01T05:13:15;2.95;;;1.40;;
38843;SDS011;24596;48.080;8.362;2023-02-01T05:15:59;4.80;;;1.60;;
38843;SDS011;24596;48.080;8.362;2023-02-01T05:18:24;4.18;;;1.30;;
38843;SDS011;24596;48.080;8.362;2023-02-01T05:20:49;3.13;;;1.45;;
38843;SDS011;24596;48.080;8.362;2023-02-01T05:23:14;4.07;;;1.55;;
38843;SDS011;24596;48.080;8.362;2023-02-01T05:25:40;6.57;;;1.30;;
38843;SDS011;24596;48.080;8.362;2023-02-01T05:28:05;4.47;;;1.38;;
38843;SDS011;24596;48.080;8.362;2023-02-01T05:30:30;2.53;;;1.25;;
38843;SDS011;24596;48.080;8.362;2023-02-01T05:32:57;2.80;;;1.20;;
38843;SDS011;24596;48.080;8.362;2023-02-01T05:35:22;2.55;;;1.10;;
38843;SDS011;24596;48.080;8.362;2023-02-01T05:37:47;3.35;;;1.35;;
38843;SDS011;24596;48.080;8.362;2023-02-01T05:40:13;3.78;;;1.52;;
38843;SDS011;24596;48.080;8.362;2023-02-01T05:42:38;4.07;;;1.38;;
38843;SDS011;24596;48.080;8.362;2023-02-01T05:45:03;3.03;;;1.40;;
38843;SDS011;24596;48.080;8.362;2023-02-01T05:47:30;3.83;;;1.70;;
38843;SDS011;24596;48.080;8.362;2023-02-01T05:49:55;3.00;;;1.45;;
38843;SDS011;24596;48.080;8.362;2023-02-01T05:52:20;3.95;;;1.52;;
38843;SDS011;24596;48.080;8.362;2023-02-01T05:54:46;3.33;;;1.58;;
38843;SDS011;24596;48.080;8.362;2023-02-01T05:57:14;6.90;;;1.95;;
38843;SDS011;24596;48.080;8.362;2023-02-01T05:59:40;3.72;;;1.75;;
38843;SDS011;24596;48.080;8.362;2023-02-01T06:02:09;4.95;;;2.17;;
38843;SDS011;24596;48.080;8.362;2023-02-01T06:04:35;4.97;;;1.85;;
38843;SDS011;24596;48.080;8.362;2023-02-01T06:07:00;5.82;;;2.70;;
38843;SDS011;24596;48.080;8.362;2023-02-01T06:09:25;4.13;;;1.67;;
38843;SDS011;24596;48.080;8.362;2023-02-01T06:11:50;3.03;;;1.23;;
38843;SDS011;24596;48.080;8.362;2023-02-01T06:14:16;3.85;;;1.60;;
38843;SDS011;24596;48.080;8.362;2023-02-01T06:16:41;2.92;;;1.20;;
38843;SDS011;24596;48.080;8.362;2023-02-01T06:19:06;2.10;;;1.17;;
38843;SDS011;24596;48.080;8.362;2023-02-01T06:21:31;3.05;;;1.45;;
38843;SDS011;24596;48.080;8.362;2023-02-01T06:23:58;4.05;;;1.40;;
38843;SDS011;24596;48.080;8.362;2023-02-01T06:26:24;2.80;;;1.00;;
38843;SDS011;24596;48.080;8.362;2023-02-01T06:28:49;3.25;;;1.20;;
38843;SDS011;24596;48.080;8.362;2023-02-01T06:31:14;3.75;;;1.23;;
38843;SDS011;24596;48.080;8.362;2023-02-01T06:33:40;2.72;;;1.08;;
38843;SDS011;24596;48.080;8.362;2023-02-01T06:36:06;1.98;;;0.95;;
38843;SDS011;24596;48.080;8.362;2023-02-01T06:38:31;2.53;;;1.30;;
38843;SDS011;24596;48.080;8.362;2023-02-01T06:40:59;4.45;;;1.30;;
38843;SDS011;24596;48.080;8.362;2023-02-01T06:43:25;2.70;;;1.10;;
38843;SDS011;24596;48.080;8.362;2023-02-01T06:45:50;2.63;;;1.20;;
38843;SDS011;24596;48.080;8.362;2023-02-01T06:48:16;3.97;;;1.30;;
38843;SDS011;24596;48.080;8.362;2023-02-01T06:50:41;3.85;;;1.52;;
38843;SDS011;24596;48.080;8.362;2023-02-01T06:53:06;5.15;;;1.42;;
38843;SDS011;24596;48.080;8.362;2023-02-01T06:55:32;4.05;;;2.20;;
38843;SDS011;24596;48.080;8.362;2023-02-01T06:57:57;4.07;;;1.80;;
38843;SDS011;24596;48.080;8.362;2023-02-01T07:00:22;3.38;;;1.50;;
38843;SDS011;24596;48.080;8.362;2023-02-01T07:02:48;5.38;;;1.60;;
38843;SDS011;24596;48.080;8.362;2023-02-01T07:05:13;3.95;;;1.55;;
38843;SDS011;24596;48.080;8.362;2023-02-01T07:07:39;2.42;;;1.17;;
38843;SDS011;24596;48.080;8.362;2023-02-01T07:10:04;2.20;;;1.08;;
38843;SDS011;24596;48.080;8.362;2023-02-01T07:12:29;2.38;;;1.23;;
38843;SDS011;24596;48.080;8.362;2023-02-01T07:14:54;4.50;;;1.30;;
38843;SDS011;24596;48.080;8.362;2023-02-01T07:17:21;2.90;;;1.30;;
38843;SDS011;24596;48.080;8.362;2023-02-01T07:19:46;2.80;;;1.25;;
38843;SDS011;24596;48.080;8.362;2023-02-01T07:22:11;5.47;;;1.52;;
38843;SDS011;24596;48.080;8.362;2023-02-01T07:24:36;3.45;;;1.27;;
38843;SDS011;24596;48.080;8.362;2023-02-01T07:27:02;3.40;;;1.15;;
38843;SDS011;24596;48.080;8.362;2023-02-01T07:29:27;2.92;;;1.40;;
38843;SDS011;24596;48.080;8.362;2023-02-01T07:31:52;3.70;;;1.55;;
38843;SDS011;24596;48.080;8.362;2023-02-01T07:34:17;5.05;;;1.30;;
38843;SDS011;24596;48.080;8.362;2023-02-01T07:36:43;3.30;;;1.35;;
38843;SDS011;24596;48.080;8.362;2023-02-01T07:39:08;2.88;;;1.17;;
38843;SDS011;24596;48.080;8.362;2023-02-01T07:41:33;3.95;;;1.23;;
38843;SDS011;24596;48.080;8.362;2023-02-01T07:43:58;3.80;;;1.13;;
38843;SDS011;24596;48.080;8.362;2023-02-01T07:46:24;3.38;;;1.50;;
38843;SDS011;24596;48.080;8.362;2023-02-01T07:48:49;3.15;;;1.42;;
38843;SDS011;24596;48.080;8.362;2023-02-01T07:51:15;4.30;;;1.52;;
38843;SDS011;24596;48.080;8.362;2023-02-01T07:53:41;6.60;;;1.60;;
38843;SDS011;24596;48.080;8.362;2023-02-01T07:56:16;4.95;;;1.77;;
38843;SDS011;24596;48.080;8.362;2023-02-01T07:58:42;4.80;;;1.50;;
38843;SDS011;24596;48.080;8.362;2023-02-01T08:01:14;5.32;;;2.13;;
38843;SDS011;24596;48.080;8.362;2023-02-01T08:03:49;4.72;;;1.40;;
38843;SDS011;24596;48.080;8.362;2023-02-01T08:06:15;6.50;;;2.00;;
38843;SDS011;24596;48.080;8.362;2023-02-01T08:08:40;3.40;;;1.60;;
38843;SDS011;24596;48.080;8.362;2023-02-01T08:11:07;4.70;;;1.60;;
38843;SDS011;24596;48.080;8.362;2023-02-01T08:13:33;2.72;;;1.42;;
38843;SDS011;24596;48.080;8.362;2023-02-01T08:15:58;3.97;;;1.70;;
38843;SDS011;24596;48.080;8.362;2023-02-01T08:18:24;7.82;;;1.70;;
38843;SDS011;24596;48.080;8.362;2023-02-01T08:20:49;2.97;;;1.17;;
38843;SDS011;24596;48.080;8.362;2023-02-01T08:23:14;6.07;;;1.88;;
38843;SDS011;24596;48.080;8.362;2023-02-01T08:25:39;3.58;;;1.30;;
38843;SDS011;24596;48.080;8.362;2023-02-01T08:28:08;3.47;;;1.48;;
38843;SDS011;24596;48.080;8.362;2023-02-01T08:30:33;4.78;;;1.40;;
38843;SDS011;24596;48.080;8.362;2023-02-01T08:32:58;3.05;;;1.40;;
38843;SDS011;24596;48.080;8.362;2023-02-01T08:35:24;4.97;;;1.50;;
38843;SDS011;24596;48.080;8.362;2023-02-01T08:37:49;3.95;;;1.63;;
38843;SDS011;24596;48.080;8.362;2023-02-01T08:40:14;6.88;;;1.73;;
38843;SDS011;24596;48.080;8.362;2023-02-01T08:42:40;5.22;;;1.73;;
38843;SDS011;24596;48.080;8.362;2023-02-01T08:45:19;4.75;;;1.70;;
38843;SDS011;24596;48.080;8.362;2023-02-01T08:47:48;6.95;;;2.50;;
38843;SDS011;24596;48.080;8.362;2023-02-01T08:50:14;6.75;;;1.85;;
38843;SDS011;24596;48.080;8.362;2023-02-01T08:52:39;5.95;;;2.13;;
38843;SDS011;24596;48.080;8.362;2023-02-01T08:55:05;5.80;;;2.00;;
38843;SDS011;24596;48.080;8.362;2023-02-01T08:57:30;6.38;;;1.77;;
38843;SDS011;24596;48.080;8.362;2023-02-01T08:59:56;7.18;;;1.63;;
38843;SDS011;24596;48.080;8.362;2023-02-01T09:02:21;10.00;;;2.88;;
38843;SDS011;24596;48.080;8.362;2023-02-01T09:04:46;7.90;;;2.30;;
38843;SDS011;24596;48.080;8.362;2023-02-01T09:07:11;10.18;;;2.50;;
38843;SDS011;24596;48.080;8.362;2023-02-01T09:09:38;6.78;;;2.22;;
38843;SDS011;24596;48.080;8.362;2023-02-01T09:12:03;8.68;;;2.63;;
38843;SDS011;24596;48.080;8.362;2023-02-01T09:14:29;5.97;;;2.53;;
38843;SDS011;24596;48.080;8.362;2023-02-01T09:16:54;9.63;;;2.28;;
38843;SDS011;24596;48.080;8.362;2023-02-01T09:19:19;10.45;;;2.20;;
38843;SDS011;24596;48.080;8.362;2023-02-01T09:21:44;7.95;;;2.50;;
38843;SDS011;24596;48.080;8.362;2023-02-01T09:24:10;9.55;;;2.50;;
38843;SDS011;24596;48.080;8.362;2023-02-01T09:26:36;9.48;;;3.00;;
38843;SDS011;24596;48.080;8.362;2023-02-01T09:29:01;9.48;;;2.35;;
38843;SDS011;24596;48.080;8.362;2023-02-01T09:31:26;10.32;;;3.00;;
38843;SDS011;24596;48.080;8.362;2023-02-01T09:33:51;7.70;;;2.88;;
38843;SDS011;24596;48.080;8.362;2023-02-01T09:36:17;7.32;;;2.30;;
38843;SDS011;24596;48.080;8.362;2023-02-01T09:38:44;6.50;;;2.08;;
38843;SDS011;24596;48.080;8.362;2023-02-01T09:43:56;9.57;;;2.60;;
38843;SDS011;24596;48.080;8.362;2023-02-01T09:46:26;7.30;;;2.75;;
38843;SDS011;24596;48.080;8.362;2023-02-01T09:48:56;7.53;;;2.20;;
38843;SDS011;24596;48.080;8.362;2023-02-01T09:51:24;6.30;;;2.55;;
38843;SDS011;24596;48.080;8.362;2023-02-01T09:54:05;5.43;;;2.10;;
38843;SDS011;24596;48.080;8.362;2023-02-01T09:56:34;5.47;;;2.30;;
38843;SDS011;24596;48.080;8.362;2023-02-01T09:59:10;8.65;;;2.20;;
38843;SDS011;24596;48.080;8.362;2023-02-01T10:01:40;9.02;;;2.38;;
38843;SDS011;24596;48.080;8.362;2023-02-01T10:04:06;5.97;;;2.60;;
38843;SDS011;24596;48.080;8.362;2023-02-01T10:19:20;3.80;;;1.85;;
38843;SDS011;24596;48.080;8.362;2023-02-01T10:21:54;4.93;;;1.60;;
38843;SDS011;24596;48.080;8.362;2023-02-01T10:24:22;5.13;;;2.30;;
38843;SDS011;24596;48.080;8.362;2023-02-01T10:27:35;6.57;;;2.47;;
38843;SDS011;24596;48.080;8.362;2023-02-01T10:29:37;5.57;;;2.00;;
38843;SDS011;24596;48.080;8.362;2023-02-01T10:32:08;3.67;;;1.80;;
38843;SDS011;24596;48.080;8.362;2023-02-01T10:34:35;4.38;;;1.60;;
38843;SDS011;24596;48.080;8.362;2023-02-01T10:37:10;5.18;;;1.70;;
38843;SDS011;24596;48.080;8.362;2023-02-01T10:39:38;7.07;;;2.45;;
38843;SDS011;24596;48.080;8.362;2023-02-01T10:42:03;5.57;;;1.85;;
38843;SDS011;24596;48.080;8.362;2023-02-01T10:44:29;7.03;;;2.00;;
38843;SDS011;24596;48.080;8.362;2023-02-01T10:46:55;5.63;;;2.08;;
38843;SDS011;24596;48.080;8.362;2023-02-01T10:49:22;6.10;;;2.53;;
38843;SDS011;24596;48.080;8.362;2023-02-01T10:51:58;7.45;;;2.20;;
38843;SDS011;24596;48.080;8.362;2023-02-01T10:54:33;5.88;;;2.38;;
38843;SDS011;24596;48.080;8.362;2023-02-01T10:56:59;9.75;;;3.15;;
38843;SDS011;24596;48.080;8.362;2023-02-01T10:59:25;5.70;;;2.15;;
38843;SDS011;24596;48.080;8.362;2023-02-01T11:01:57;8.20;;;2.42;;
38843;SDS011;24596;48.080;8.362;2023-02-01T11:04:23;6.85;;;2.60;;
38843;SDS011;24596;48.080;8.362;2023-02-01T11:07:23;6.18;;;2.30;;
38843;SDS011;24596;48.080;8.362;2023-02-01T11:09:41;6.90;;;2.58;;
38843;SDS011;24596;48.080;8.362;2023-02-01T11:12:20;5.95;;;2.60;;
38843;SDS011;24596;48.080;8.362;2023-02-01T11:14:47;9.20;;;3.20;;
38843;SDS011;24596;48.080;8.362;2023-02-01T11:19:46;9.98;;;3.17;;
38843;SDS011;24596;48.080;8.362;2023-02-01T11:22:11;7.68;;;2.53;;
38843;SDS011;24596;48.080;8.362;2023-02-01T11:24:37;4.15;;;2.05;;
38843;SDS011;24596;48.080;8.362;2023-02-01T11:27:06;9.75;;;2.70;;
38843;SDS011;24596;48.080;8.362;2023-02-01T11:29:44;5.50;;;2.45;;
38843;SDS011;24596;48.080;8.362;2023-02-01T11:32:12;6.82;;;2.25;;
38843;SDS011;24596;48.080;8.362;2023-02-01T11:34:38;5.22;;;2.00;;
38843;SDS011;24596;48.080;8.362;2023-02-01T11:37:04;5.07;;;2.03;;
38843;SDS011;24596;48.080;8.362;2023-02-01T11:39:30;5.40;;;1.83;;
38843;SDS011;24596;48.080;8.362;2023-02-01T11:41:57;10.25;;;1.95;;
38843;SDS011;24596;48.080;8.362;2023-02-01T11:44:33;4.50;;;1.77;;
38843;SDS011;24596;48.080;8.362;2023-02-01T11:47:16;4.82;;;1.48;;
38843;SDS011;24596;48.080;8.362;2023-02-01T11:49:42;4.50;;;1.10;;
38843;SDS011;24596;48.080;8.362;2023-02-01T11:52:10;3.35;;;1.70;;
38843;SDS011;24596;48.080;8.362;2023-02-01T11:54:48;6.88;;;1.67;;
38843;SDS011;24596;48.080;8.362;2023-02-01T12:00:10;6.70;;;2.15;;
38843;SDS011;24596;48.080;8.362;2023-02-01T12:05:22;9.63;;;2.33;;
38843;SDS011;24596;48.080;8.362;2023-02-01T12:13:51;9.27;;;2.40;;
38843;SDS011;24596;48.080;8.362;2023-02-01T12:16:02;7.43;;;2.53;;
38843;SDS011;24596;48.080;8.362;2023-02-01T12:23:31;11.98;;;2.33;;
38843;SDS011;24596;48.080;8.362;2023-02-01T12:28:35;8.80;;;2.40;;
38843;SDS011;24596;48.080;8.362;2023-02-01T12:36:21;9.57;;;2.90;;
38843;SDS011;24596;48.080;8.362;2023-02-01T12:46:21;8.48;;;2.53;;
38843;SDS011;24596;48.080;8.362;2023-02-01T12:51:18;13.60;;;2.78;;
38843;SDS011;24596;48.080;8.362;2023-02-01T12:53:50;6.43;;;2.55;;
38843;SDS011;24596;48.080;8.362;2023-02-01T12:56:31;11.40;;;2.75;;
38843;SDS011;24596;48.080;8.362;2023-02-01T12:58:58;16.73;;;3.35;;
38843;SDS011;24596;48.080;8.362;2023-02-01T13:01:34;10.38;;;2.70;;
38843;SDS011;24596;48.080;8.362;2023-02-01T13:04:17;14.00;;;2.88;;
38843;SDS011;24596;48.080;8.362;2023-02-01T13:06:49;9.15;;;2.28;;
38843;SDS011;24596;48.080;8.362;2023-02-01T13:11:43;10.70;;;2.40;;
38843;SDS011;24596;48.080;8.362;2023-02-01T13:16:42;13.95;;;3.30;;
38843;SDS011;24596;48.080;8.362;2023-02-01T13:19:23;7.72;;;2.60;;
38843;SDS011;24596;48.080;8.362;2023-02-01T13:21:51;11.88;;;2.97;;
38843;SDS011;24596;48.080;8.362;2023-02-01T13:24:29;7.97;;;2.47;;
38843;SDS011;24596;48.080;8.362;2023-02-01T13:26:55;16.42;;;2.63;;
38843;SDS011;24596;48.080;8.362;2023-02-01T13:29:21;13.38;;;2.40;;
38843;SDS011;24596;48.080;8.362;2023-02-01T13:39:48;8.27;;;2.47;;
38843;SDS011;24596;48.080;8.362;2023-02-01T13:42:20;10.57;;;3.00;;
38843;SDS011;24596;48.080;8.362;2023-02-01T13:44:50;9.77;;;3.03;;
38843;SDS011;24596;48.080;8.362;2023-02-01T13:47:24;12.63;;;2.40;;
38843;SDS011;24596;48.080;8.362;2023-02-01T13:49:50;15.70;;;3.55;;
38843;SDS011;24596;48.080;8.362;2023-02-01T13:54:50;14.13;;;2.65;;
38843;SDS011;24596;48.080;8.362;2023-02-01T14:00:05;9.95;;;2.67;;
38843;SDS011;24596;48.080;8.362;2023-02-01T14:10:45;8.75;;;2.38;;
38843;SDS011;24596;48.080;8.362;2023-02-01T14:19:17;14.88;;;2.53;;
38843;SDS011;24596;48.080;8.362;2023-02-01T14:23:47;11.88;;;2.42;;
38843;SDS011;24596;48.080;8.362;2023-02-01T14:26:17;15.93;;;2.45;;
38843;SDS011;24596;48.080;8.362;2023-02-01T14:28:43;6.93;;;2.10;;
38843;SDS011;24596;48.080;8.362;2023-02-01T14:34:02;17.47;;;2.40;;
38843;SDS011;24596;48.080;8.362;2023-02-01T14:36:40;11.70;;;2.65;;
38843;SDS011;24596;48.080;8.362;2023-02-01T14:39:16;9.60;;;2.42;;
38843;SDS011;24596;48.080;8.362;2023-02-01T14:41:43;10.68;;;2.50;;
38843;SDS011;24596;48.080;8.362;2023-02-01T14:49:18;8.45;;;2.67;;
38843;SDS011;24596;48.080;8.362;2023-02-01T14:51:43;11.77;;;2.85;;
38843;SDS011;24596;48.080;8.362;2023-02-01T14:54:09;8.90;;;2.38;;
38843;SDS011;24596;48.080;8.362;2023-02-01T14:56:37;10.70;;;2.90;;
38843;SDS011;24596;48.080;8.362;2023-02-01T14:59:13;12.55;;;2.63;;
38843;SDS011;24596;48.080;8.362;2023-02-01T15:01:46;11.68;;;2.72;;
38843;SDS011;24596;48.080;8.362;2023-02-01T15:04:16;11.13;;;2.67;;
38843;SDS011;24596;48.080;8.362;2023-02-01T15:06:50;11.63;;;2.33;;
38843;SDS011;24596;48.080;8.362;2023-02-01T15:09:34;11.23;;;2.95;;
38843;SDS011;24596;48.080;8.362;2023-02-01T15:12:23;9.82;;;2.80;;
38843;SDS011;24596;48.080;8.362;2023-02-01T15:17:23;9.05;;;2.88;;
38843;SDS011;24596;48.080;8.362;2023-02-01T15:19:56;11.65;;;3.10;;
38843;SDS011;24596;48.080;8.362;2023-02-01T15:24:53;16.23;;;3.03;;
38843;SDS011;24596;48.080;8.362;2023-02-01T15:27:19;13.70;;;2.83;;
38843;SDS011;24596;48.080;8.362;2023-02-01T15:29:44;8.90;;;2.63;;
38843;SDS011;24596;48.080;8.362;2023-02-01T15:32:27;16.83;;;3.42;;
38843;SDS011;24596;48.080;8.362;2023-02-01T15:34:53;22.35;;;6.38;;
38843;SDS011;24596;48.080;8.362;2023-02-01T15:37:20;11.05;;;3.20;;
38843;SDS011;24596;48.080;8.362;2023-02-01T15:42:32;8.52;;;2.60;;
38843;SDS011;24596;48.080;8.362;2023-02-01T15:44:58;16.13;;;3.50;;
38843;SDS011;24596;48.080;8.362;2023-02-01T15:47:24;11.02;;;3.35;;
38843;SDS011;24596;48.080;8.362;2023-02-01T15:49:51;14.75;;;3.22;;
38843;SDS011;24596;48.080;8.362;2023-02-01T15:55:01;16.83;;;3.10;;
38843;SDS011;24596;48.080;8.362;2023-02-01T15:57:28;13.45;;;3.22;;
38843;SDS011;24596;48.080;8.362;2023-02-01T15:59:58;12.38;;;3.30;;
38843;SDS011;24596;48.080;8.362;2023-02-01T16:02:40;17.00;;;3.42;;
38843;SDS011;24596;48.080;8.362;2023-02-01T16:05:29;14.40;;;2.78;;
38843;SDS011;24596;48.080;8.362;2023-02-01T16:07:59;13.27;;;2.70;;
38843;SDS011;24596;48.080;8.362;2023-02-01T16:10:29;10.48;;;2.78;;
38843;SDS011;24596;48.080;8.362;2023-02-01T16:12:54;9.70;;;2.88;;
38843;SDS011;24596;48.080;8.362;2023-02-01T16:15:23;11.50;;;2.95;;
38843;SDS011;24596;48.080;8.362;2023-02-01T16:17:49;12.38;;;3.03;;
38843;SDS011;24596;48.080;8.362;2023-02-01T16:20:14;17.83;;;4.18;;
38843;SDS011;24596;48.080;8.362;2023-02-01T16:22:39;9.63;;;2.95;;
38843;SDS011;24596;48.080;8.362;2023-02-01T16:25:05;14.00;;;3.15;;
38843;SDS011;24596;48.080;8.362;2023-02-01T16:27:30;12.95;;;3.35;;
38843;SDS011;24596;48.080;8.362;2023-02-01T16:29:55;11.30;;;2.70;;
38843;SDS011;24596;48.080;8.362;2023-02-01T16:32:21;11.85;;;3.30;;
38843;SDS011;24596;48.080;8.362;2023-02-01T16:34:47;15.98;;;3.45;;
38843;SDS011;24596;48.080;8.362;2023-02-01T16:37:20;12.13;;;2.67;;
38843;SDS011;24596;48.080;8.362;2023-02-01T16:39:45;14.25;;;2.83;;
38843;SDS011;24596;48.080;8.362;2023-02-01T16:42:11;9.38;;;2.42;;
38843;SDS011;24596;48.080;8.362;2023-02-01T16:44:37;15.80;;;3.28;;
38843;SDS011;24596;48.080;8.362;2023-02-01T16:47:02;17.02;;;3.40;;
38843;SDS011;24596;48.080;8.362;2023-02-01T16:49:29;8.80;;;2.58;;
38843;SDS011;24596;48.080;8.362;2023-02-01T16:51:57;18.63;;;4.00;;
38843;SDS011;24596;48.080;8.362;2023-02-01T16:54:23;14.38;;;2.75;;
38843;SDS011;24596;48.080;8.362;2023-02-01T16:56:48;16.70;;;3.15;;
38843;SDS011;24596;48.080;8.362;2023-02-01T16:59:14;17.80;;;3.38;;
38843;SDS011;24596;48.080;8.362;2023-02-01T17:01:40;16.83;;;3.42;;
38843;SDS011;24596;48.080;8.362;2023-02-01T17:04:07;14.50;;;3.40;;
38843;SDS011;24596;48.080;8.362;2023-02-01T17:06:32;16.55;;;3.35;;